Time;durP1;ratioP1;P1;durP2;ratioP2;P2;SDS_P1;SDS_P2;PMS_P1;PMS_P2;Temp;Humidity;BMP_temperature;BMP_pressure;BME280_temperature;BME280_humidity;BME280_pressure;Samples;Min_cycle;Max_cycle;Signal;HPM_P1;HPM_P2
2023/10/23 00:01:39;;;;;;;2.38;1.00;;;10.60;99.90;;;;;;4986810;28;20528;-86
2023/10/23 00:04:06;;;;;;;1.40;1.10;;;10.50;99.90;;;;;;4993700;28;20286;-84
2023/10/23 00:06:33;;;;;;;2.03;1.10;;;10.50;99.90;;;;;;4993801;28;20537;-85
2023/10/23 00:09:02;;;;;;;2.35;1.13;;;10.50;99.90;;;;;;5010194;28;20224;-91
2023/10/23 00:11:31;;;;;;;1.05;0.85;;;10.50;99.90;;;;;;4992515;28;20187;-85
2023/10/23 00:13:57;;;;;;;2.90;1.50;;;10.50;99.90;;;;;;4994133;28;20191;-85
2023/10/23 00:16:23;;;;;;;1.20;1.00;;;10.50;99.90;;;;;;4993394;28;20245;-85
2023/10/23 00:18:49;;;;;;;1.35;1.23;;;10.50;99.90;;;;;;4999346;28;20516;-84
2023/10/23 00:21:16;;;;;;;1.20;1.10;;;10.50;99.90;;;;;;4995228;28;20191;-86
2023/10/23 00:23:41;;;;;;;1.38;1.25;;;10.50;99.90;;;;;;5001106;28;20638;-85
2023/10/23 00:26:08;;;;;;;2.10;1.00;;;10.50;99.90;;;;;;4994693;28;20195;-85
2023/10/23 00:28:34;;;;;;;2.72;1.20;;;10.50;99.90;;;;;;4994709;28;20215;-85
2023/10/23 00:31:00;;;;;;;3.05;1.38;;;10.50;99.90;;;;;;4992771;28;20604;-85
2023/10/23 00:33:26;;;;;;;2.03;1.08;;;10.40;99.90;;;;;;4994607;28;20191;-85
2023/10/23 00:35:52;;;;;;;3.38;1.27;;;10.40;99.90;;;;;;4993017;28;20184;-85
2023/10/23 00:38:18;;;;;;;2.03;1.20;;;10.40;99.90;;;;;;5001449;28;20234;-85
2023/10/23 00:40:44;;;;;;;1.60;1.20;;;10.40;99.90;;;;;;4993560;28;20180;-84
2023/10/23 00:43:17;;;;;;;2.75;1.60;;;10.30;99.90;;;;;;4993896;28;20187;-84
2023/10/23 00:45:56;;;;;;;2.58;1.48;;;10.30;99.90;;;;;;4994228;28;20188;-85
2023/10/23 00:48:23;;;;;;;1.52;1.13;;;10.20;99.90;;;;;;4997434;28;20524;-86
2023/10/23 00:50:50;;;;;;;1.98;1.10;;;10.20;99.90;;;;;;4992958;28;20263;-84
2023/10/23 00:53:22;;;;;;;1.20;1.10;;;10.10;99.90;;;;;;4999707;28;20233;-86
2023/10/23 00:55:50;;;;;;;1.80;1.10;;;10.10;99.90;;;;;;4994395;28;20187;-85
2023/10/23 00:58:18;;;;;;;1.85;1.20;;;10.10;99.90;;;;;;4988694;28;20198;-86
2023/10/23 01:00:44;;;;;;;2.83;1.27;;;10.00;99.90;;;;;;4987011;28;20188;-86
2023/10/23 01:03:10;;;;;;;1.45;1.10;;;10.00;99.90;;;;;;4992814;28;20196;-85
2023/10/23 01:05:37;;;;;;;2.00;1.67;;;9.90;99.90;;;;;;5000112;28;20184;-86
2023/10/23 01:08:04;;;;;;;1.30;1.20;;;9.90;99.90;;;;;;4992077;28;20208;-84
2023/10/23 01:10:30;;;;;;;1.70;1.20;;;9.80;99.90;;;;;;5001557;28;20634;-85
2023/10/23 01:12:56;;;;;;;1.63;1.25;;;9.70;99.90;;;;;;4993637;28;20195;-85
2023/10/23 01:15:22;;;;;;;3.67;1.33;;;9.60;99.90;;;;;;4992942;28;20187;-84
2023/10/23 01:17:49;;;;;;;2.08;1.50;;;9.60;99.90;;;;;;5001537;28;20202;-84
2023/10/23 01:20:17;;;;;;;1.88;1.45;;;9.60;99.90;;;;;;4991956;28;20211;-85
2023/10/23 01:22:42;;;;;;;1.20;1.10;;;9.60;99.90;;;;;;4997713;28;20644;-84
2023/10/23 01:25:15;;;;;;;1.95;1.30;;;9.50;99.90;;;;;;5004882;28;20187;-86
2023/10/23 01:27:42;;;;;;;2.40;1.45;;;9.50;99.90;;;;;;4994290;28;20204;-85
2023/10/23 01:30:08;;;;;;;3.92;1.45;;;9.50;99.90;;;;;;4998717;28;20291;-85
2023/10/23 01:32:35;;;;;;;1.58;1.48;;;9.50;99.90;;;;;;4993709;28;20191;-86
2023/10/23 01:35:01;;;;;;;1.77;1.60;;;9.50;99.90;;;;;;5000825;28;20218;-86
2023/10/23 01:37:27;;;;;;;1.95;1.58;;;9.60;99.90;;;;;;5000397;28;20305;-84
2023/10/23 01:39:52;;;;;;;2.00;1.40;;;9.60;99.90;;;;;;5004460;28;20180;-87
2023/10/23 01:42:18;;;;;;;3.10;1.95;;;9.50;99.90;;;;;;4999008;28;20262;-85
2023/10/23 01:44:44;;;;;;;2.78;1.60;;;9.60;99.90;;;;;;4992489;28;20685;-85
2023/10/23 01:49:45;;;;;;;2.17;1.75;;;9.60;99.90;;;;;;4953633;23;20266;-80
2023/10/23 01:52:10;;;;;;;2.63;1.77;;;9.50;99.90;;;;;;5028971;28;20187;-81
2023/10/23 01:54:36;;;;;;;2.92;1.70;;;9.50;99.90;;;;;;5015260;28;20187;-81
2023/10/23 01:57:02;;;;;;;4.93;1.80;;;9.50;99.90;;;;;;5015816;28;20191;-80
2023/10/23 01:59:28;;;;;;;2.00;1.80;;;9.50;99.90;;;;;;5011851;28;20621;-80
2023/10/23 02:01:53;;;;;;;2.53;1.90;;;9.40;99.90;;;;;;5015327;28;20187;-81
2023/10/23 02:04:19;;;;;;;2.22;1.75;;;9.40;99.90;;;;;;5017644;28;20625;-81
2023/10/23 02:06:45;;;;;;;3.80;2.08;;;9.50;99.90;;;;;;5021726;28;20191;-80
2023/10/23 02:09:12;;;;;;;6.18;2.20;;;9.50;99.90;;;;;;5024119;28;20226;-81
2023/10/23 02:11:38;;;;;;;2.05;1.75;;;9.40;99.90;;;;;;5016280;28;20566;-81
2023/10/23 02:14:04;;;;;;;2.03;1.88;;;9.40;99.90;;;;;;5032935;28;20571;-80
2023/10/23 02:16:29;;;;;;;2.13;1.73;;;9.40;99.90;;;;;;5031860;28;20222;-81
2023/10/23 02:18:55;;;;;;;4.28;2.15;;;9.30;99.90;;;;;;5019839;28;20214;-80
2023/10/23 02:21:21;;;;;;;2.85;1.52;;;9.30;99.90;;;;;;5012392;28;20245;-80
2023/10/23 02:23:46;;;;;;;4.10;1.75;;;9.30;99.90;;;;;;5018910;28;20187;-81
2023/10/23 02:26:12;;;;;;;2.70;1.75;;;9.30;99.90;;;;;;5024937;28;20213;-80
2023/10/23 02:28:38;;;;;;;2.25;2.05;;;9.20;99.90;;;;;;5035296;28;20297;-80
2023/10/23 02:31:03;;;;;;;2.60;1.92;;;9.20;99.90;;;;;;5026306;28;20265;-79
2023/10/23 02:33:29;;;;;;;4.45;1.95;;;9.20;99.90;;;;;;5020830;28;20187;-80
2023/10/23 02:35:56;;;;;;;3.38;2.03;;;9.30;99.90;;;;;;5024228;28;20183;-80
2023/10/23 02:38:21;;;;;;;3.25;2.20;;;9.30;99.90;;;;;;5027222;28;20179;-82
2023/10/23 02:40:54;;;;;;;3.35;2.25;;;9.40;99.90;;;;;;5014691;28;20187;-80
2023/10/23 02:43:20;;;;;;;3.20;2.10;;;9.40;99.90;;;;;;5030009;28;20273;-81
2023/10/23 02:45:49;;;;;;;3.25;1.90;;;9.40;99.90;;;;;;5015056;28;20237;-80
2023/10/23 02:48:16;;;;;;;2.72;2.45;;;9.50;99.90;;;;;;5015436;28;20239;-80
2023/10/23 02:50:51;;;;;;;2.50;2.30;;;9.50;99.90;;;;;;5026650;28;20273;-79
2023/10/23 02:53:17;;;;;;;3.10;2.40;;;9.60;99.90;;;;;;5014284;28;20638;-79
2023/10/23 02:55:42;;;;;;;3.50;2.35;;;9.70;99.90;;;;;;5014329;28;20229;-80
2023/10/23 02:58:08;;;;;;;3.80;2.65;;;9.70;99.90;;;;;;5015994;28;20183;-80
2023/10/23 03:00:35;;;;;;;3.70;2.30;;;9.80;99.90;;;;;;5012724;28;20191;-80
2023/10/23 03:03:01;;;;;;;3.80;2.80;;;9.90;99.90;;;;;;5013046;28;20195;-81
2023/10/23 03:05:26;;;;;;;3.22;2.60;;;10.00;99.90;;;;;;5022907;28;20183;-80
2023/10/23 03:07:52;;;;;;;3.65;2.40;;;10.00;99.90;;;;;;5034540;28;20206;-80
2023/10/23 03:10:19;;;;;;;4.40;2.60;;;10.10;99.90;;;;;;5023590;28;20564;-80
2023/10/23 03:12:44;;;;;;;3.13;2.40;;;10.10;99.90;;;;;;5013874;28;20179;-80
2023/10/23 03:15:11;;;;;;;3.10;2.33;;;10.20;99.90;;;;;;5022669;28;20508;-80
2023/10/23 03:17:37;;;;;;;4.13;2.80;;;10.20;99.90;;;;;;5022536;28;20270;-80
2023/10/23 03:20:04;;;;;;;4.00;2.42;;;10.20;99.90;;;;;;5014521;28;20641;-80
2023/10/23 03:22:29;;;;;;;2.75;2.40;;;10.20;99.90;;;;;;5017212;28;20664;-80
2023/10/23 03:24:55;;;;;;;3.63;2.38;;;10.30;99.90;;;;;;5014531;28;20186;-80
2023/10/23 03:27:21;;;;;;;4.57;2.42;;;10.20;99.90;;;;;;5014149;28;20219;-80
2023/10/23 03:29:46;;;;;;;5.88;2.47;;;10.30;99.90;;;;;;5014655;28;20198;-81
2023/10/23 03:32:12;;;;;;;2.72;2.22;;;10.30;99.90;;;;;;5030495;28;20192;-81
2023/10/23 03:34:38;;;;;;;2.40;2.20;;;10.30;99.90;;;;;;5019211;28;20186;-80
2023/10/23 03:37:04;;;;;;;3.33;2.42;;;10.30;99.90;;;;;;5026854;28;20222;-79
2023/10/23 03:39:30;;;;;;;5.45;2.13;;;10.30;99.90;;;;;;5025110;28;20178;-80
2023/10/23 03:41:56;;;;;;;3.08;2.20;;;10.30;99.90;;;;;;5015363;28;20211;-80
2023/10/23 03:44:21;;;;;;;2.63;2.40;;;10.30;99.90;;;;;;5023415;28;20561;-81
2023/10/23 03:46:47;;;;;;;4.82;2.67;;;10.40;99.90;;;;;;5013115;28;20193;-81
2023/10/23 03:49:13;;;;;;;4.55;2.50;;;10.40;99.90;;;;;;5014584;28;20319;-80
2023/10/23 03:51:38;;;;;;;2.53;2.28;;;10.40;99.90;;;;;;5023369;28;20197;-81
2023/10/23 03:54:04;;;;;;;5.15;2.45;;;10.40;99.90;;;;;;5021241;28;20289;-80
2023/10/23 03:56:30;;;;;;;2.85;2.30;;;10.40;99.90;;;;;;5047353;28;20242;-81
2023/10/23 03:58:56;;;;;;;2.90;2.20;;;10.40;99.90;;;;;;5021077;28;20702;-80
2023/10/23 04:01:22;;;;;;;2.95;2.30;;;10.40;99.90;;;;;;5029705;28;20190;-80
2023/10/23 04:03:48;;;;;;;3.92;2.40;;;10.50;99.90;;;;;;5012782;28;20187;-80
2023/10/23 04:06:13;;;;;;;3.05;2.42;;;10.50;99.90;;;;;;5028874;28;20194;-81
2023/10/23 04:08:39;;;;;;;4.30;2.65;;;10.50;99.90;;;;;;5019846;28;20218;-81
2023/10/23 04:11:05;;;;;;;4.32;2.28;;;10.50;99.90;;;;;;5015674;28;20187;-81
2023/10/23 04:13:34;;;;;;;2.92;2.30;;;10.50;99.90;;;;;;5011491;28;20190;-80
2023/10/23 04:16:00;;;;;;;3.97;2.92;;;10.50;99.90;;;;;;5012519;28;20633;-80
2023/10/23 04:18:26;;;;;;;4.75;3.08;;;10.50;99.90;;;;;;5012223;28;20604;-80
2023/10/23 04:21:06;;;;;;;5.15;2.70;;;10.50;99.90;;;;;;5021135;28;20183;-80
2023/10/23 04:23:32;;;;;;;3.78;2.90;;;10.50;99.90;;;;;;5004992;28;20190;-79
2023/10/23 04:25:58;;;;;;;3.42;2.30;;;10.50;99.90;;;;;;5013103;28;20190;-80
2023/10/23 04:28:24;;;;;;;3.58;2.55;;;10.50;99.90;;;;;;5012906;28;20207;-80
2023/10/23 04:30:50;;;;;;;3.53;2.40;;;10.50;99.90;;;;;;5012398;28;20198;-80
2023/10/23 04:33:19;;;;;;;2.80;2.33;;;10.50;99.90;;;;;;5011957;28;20191;-80
2023/10/23 04:35:45;;;;;;;2.95;2.38;;;10.50;99.90;;;;;;5013081;28;20282;-80
2023/10/23 04:38:11;;;;;;;3.85;2.53;;;10.50;99.90;;;;;;5009197;28;21007;-79
2023/10/23 04:40:37;;;;;;;6.00;2.47;;;10.50;99.90;;;;;;5011420;28;20191;-82
2023/10/23 04:43:04;;;;;;;4.43;2.38;;;10.50;99.90;;;;;;5013194;28;20257;-81
2023/10/23 04:45:29;;;;;;;2.22;2.03;;;10.50;99.90;;;;;;5008572;28;20183;-81
2023/10/23 04:47:55;;;;;;;2.70;2.30;;;10.50;99.90;;;;;;5025251;28;20302;-80
2023/10/23 04:50:22;;;;;;;3.40;2.15;;;10.40;99.90;;;;;;5009413;28;20237;-80
2023/10/23 04:52:48;;;;;;;4.18;2.60;;;10.50;99.90;;;;;;5010755;28;20514;-80
2023/10/23 04:55:14;;;;;;;4.05;2.30;;;10.50;99.90;;;;;;5013259;28;20205;-79
2023/10/23 04:57:40;;;;;;;2.67;2.33;;;10.40;99.90;;;;;;5018009;28;20606;-80
2023/10/23 05:00:06;;;;;;;2.15;1.95;;;10.40;99.90;;;;;;5012342;28;20183;-82
2023/10/23 05:02:32;;;;;;;6.38;2.22;;;10.40;99.90;;;;;;5021673;28;20282;-80
2023/10/23 05:04:58;;;;;;;3.15;2.15;;;10.40;99.90;;;;;;5016795;28;20269;-80
2023/10/23 05:07:23;;;;;;;3.95;2.22;;;10.30;99.90;;;;;;5008414;28;20199;-79
2023/10/23 05:09:49;;;;;;;3.75;2.40;;;10.30;99.90;;;;;;5012593;28;20584;-80
2023/10/23 05:12:15;;;;;;;4.40;2.50;;;10.30;99.90;;;;;;5009178;28;20677;-79
2023/10/23 05:14:41;;;;;;;2.38;1.77;;;10.30;99.90;;;;;;5032634;28;20211;-79
2023/10/23 05:17:10;;;;;;;2.90;2.58;;;10.30;99.90;;;;;;5017861;28;20186;-80
2023/10/23 05:19:36;;;;;;;3.03;2.10;;;10.30;99.90;;;;;;5013614;28;20854;-79
2023/10/23 05:22:02;;;;;;;4.15;2.22;;;10.30;99.90;;;;;;5013694;28;20210;-79
2023/10/23 05:24:28;;;;;;;3.85;2.50;;;10.30;99.90;;;;;;5004780;28;20187;-79
2023/10/23 05:26:53;;;;;;;3.28;2.50;;;10.30;99.90;;;;;;5020693;28;20233;-80
2023/10/23 05:29:19;;;;;;;3.55;2.60;;;10.30;99.90;;;;;;5016329;28;20211;-80
2023/10/23 05:31:44;;;;;;;7.10;2.28;;;10.30;99.90;;;;;;5030317;28;20272;-79
2023/10/23 05:34:10;;;;;;;4.65;2.70;;;10.30;99.90;;;;;;5016673;28;20584;-79
2023/10/23 05:36:36;;;;;;;5.88;2.70;;;10.30;99.90;;;;;;5016112;28;20219;-79
2023/10/23 05:39:01;;;;;;;3.10;2.20;;;10.30;99.90;;;;;;5016980;28;20194;-83
2023/10/23 05:41:27;;;;;;;3.72;2.40;;;10.30;99.90;;;;;;5016054;28;20190;-80
2023/10/23 05:43:53;;;;;;;5.82;2.50;;;10.30;99.90;;;;;;5014159;28;20548;-79
2023/10/23 05:46:20;;;;;;;4.88;2.70;;;10.30;99.90;;;;;;5025620;28;20521;-79
2023/10/23 05:48:46;;;;;;;5.63;2.63;;;10.40;99.90;;;;;;5028603;28;20235;-80
2023/10/23 05:51:12;;;;;;;3.22;2.50;;;10.40;99.90;;;;;;5021071;28;20190;-80
2023/10/23 05:53:37;;;;;;;4.72;2.75;;;10.40;99.90;;;;;;5014830;28;20191;-80
2023/10/23 05:56:04;;;;;;;4.22;2.60;;;10.40;99.90;;;;;;5033526;28;20190;-79
2023/10/23 05:58:34;;;;;;;3.35;2.33;;;10.40;99.90;;;;;;5028814;28;20398;-80
2023/10/23 06:01:07;;;;;;;2.72;2.33;;;10.40;99.90;;;;;;5015170;28;20637;-81
2023/10/23 06:03:33;;;;;;;5.65;2.60;;;10.40;99.90;;;;;;5007612;28;20210;-81
2023/10/23 06:05:59;;;;;;;5.90;2.65;;;10.40;99.90;;;;;;5015064;28;20190;-80
2023/10/23 06:08:25;;;;;;;3.67;2.70;;;10.40;99.90;;;;;;5015707;28;20222;-79
2023/10/23 06:10:53;;;;;;;7.05;2.95;;;10.40;99.90;;;;;;5024523;28;20284;-79
2023/10/23 06:13:20;;;;;;;3.25;2.47;;;10.40;99.90;;;;;;5016367;28;20179;-79
2023/10/23 06:15:46;;;;;;;4.97;2.80;;;10.40;99.90;;;;;;5012158;28;20233;-79
2023/10/23 06:18:12;;;;;;;3.10;2.58;;;10.50;99.90;;;;;;5018162;28;20572;-80
2023/10/23 06:20:38;;;;;;;3.53;2.67;;;10.50;99.90;;;;;;5015398;28;20230;-79
2023/10/23 06:23:03;;;;;;;3.40;2.42;;;10.50;99.90;;;;;;5015192;28;20649;-78
2023/10/23 06:25:30;;;;;;;4.85;2.85;;;10.50;99.90;;;;;;5014860;28;20189;-80
2023/10/23 06:27:59;;;;;;;4.28;2.72;;;10.50;99.90;;;;;;5016837;28;20214;-80
2023/10/23 06:30:25;;;;;;;3.03;2.50;;;10.50;99.90;;;;;;5023610;28;20190;-80
2023/10/23 06:32:51;;;;;;;3.38;2.35;;;10.50;99.90;;;;;;5016732;28;20183;-84
2023/10/23 06:35:17;;;;;;;4.35;2.85;;;10.50;99.90;;;;;;5016644;28;20222;-79
2023/10/23 06:37:43;;;;;;;4.90;2.95;;;10.50;99.90;;;;;;5031793;28;20558;-79
2023/10/23 06:40:09;;;;;;;4.15;2.30;;;10.50;99.90;;;;;;5014898;28;20187;-80
2023/10/23 06:42:35;;;;;;;3.30;2.65;;;10.60;99.90;;;;;;5022837;28;20209;-80
2023/10/23 06:45:01;;;;;;;4.43;2.60;;;10.60;99.90;;;;;;5014444;28;20641;-80
2023/10/23 06:47:27;;;;;;;4.43;2.50;;;10.60;99.90;;;;;;5023552;28;20215;-80
2023/10/23 06:49:52;;;;;;;4.57;2.50;;;10.60;99.90;;;;;;5012304;28;20226;-79
2023/10/23 06:52:18;;;;;;;5.22;2.67;;;10.70;99.90;;;;;;5012769;28;20314;-79
2023/10/23 06:54:44;;;;;;;3.55;2.50;;;10.70;99.90;;;;;;5015483;28;20199;-82
2023/10/23 06:57:10;;;;;;;2.83;2.40;;;10.70;99.90;;;;;;5024285;28;20178;-80
2023/10/23 06:59:36;;;;;;;5.72;2.53;;;10.70;99.90;;;;;;5024485;28;20182;-80
2023/10/23 07:02:02;;;;;;;4.00;2.40;;;10.70;99.90;;;;;;5012912;28;20192;-81
2023/10/23 07:04:28;;;;;;;4.63;2.67;;;10.80;99.90;;;;;;5014683;28;20183;-81
2023/10/23 07:06:55;;;;;;;4.05;2.35;;;10.80;99.90;;;;;;5014090;28;20183;-81
2023/10/23 07:09:21;;;;;;;3.45;2.42;;;10.90;99.90;;;;;;5014635;28;20215;-81
2023/10/23 07:11:50;;;;;;;4.18;2.50;;;10.90;99.90;;;;;;5013163;28;20176;-81
2023/10/23 07:14:17;;;;;;;6.95;2.45;;;10.90;99.90;;;;;;5016076;28;20567;-80
2023/10/23 07:16:43;;;;;;;12.50;3.03;;;11.00;99.90;;;;;;5031058;28;20190;-81
2023/10/23 07:19:11;;;;;;;6.80;2.50;;;11.00;99.90;;;;;;5013925;28;20191;-80
2023/10/23 07:21:37;;;;;;;4.93;2.42;;;11.00;99.90;;;;;;5019873;28;20182;-82
2023/10/23 07:24:03;;;;;;;3.35;2.40;;;11.10;99.90;;;;;;5013429;28;20661;-79
2023/10/23 07:26:28;;;;;;;4.72;2.85;;;11.10;99.90;;;;;;5022358;28;20229;-81
2023/10/23 07:28:54;;;;;;;3.38;2.83;;;11.10;99.90;;;;;;5021857;28;20211;-80
2023/10/23 07:31:20;;;;;;;3.03;2.60;;;11.20;99.90;;;;;;5010240;28;20270;-80
2023/10/23 07:33:46;;;;;;;4.13;3.20;;;11.20;99.90;;;;;;5015392;28;20183;-80
2023/10/23 07:36:13;;;;;;;7.43;2.92;;;11.20;99.90;;;;;;5022283;28;20300;-82
2023/10/23 07:38:42;;;;;;;6.93;3.17;;;11.30;99.90;;;;;;5014748;28;20618;-80
2023/10/23 07:41:09;;;;;;;3.53;2.65;;;11.30;99.90;;;;;;5027704;28;20569;-81
2023/10/23 07:43:35;;;;;;;4.40;2.53;;;11.40;99.90;;;;;;5022797;28;20186;-81
2023/10/23 07:46:06;;;;;;;4.38;3.10;;;11.40;99.90;;;;;;5020132;28;20233;-80
2023/10/23 07:48:32;;;;;;;4.68;2.40;;;11.50;99.90;;;;;;5006130;28;20301;-81
2023/10/23 07:50:59;;;;;;;6.28;2.80;;;11.50;99.90;;;;;;5013540;28;20203;-81
2023/10/23 07:53:26;;;;;;;5.85;3.03;;;11.60;99.90;;;;;;5021432;28;20187;-81
2023/10/23 07:55:51;;;;;;;3.55;2.90;;;11.60;99.90;;;;;;5023356;28;20233;-80
2023/10/23 07:58:17;;;;;;;3.22;2.78;;;11.70;99.90;;;;;;5030351;28;20564;-80
2023/10/23 08:00:43;;;;;;;8.32;3.42;;;11.70;99.90;;;;;;5011958;28;20183;-81
2023/10/23 08:03:10;;;;;;;5.47;2.97;;;11.70;99.90;;;;;;5013857;28;20211;-80
2023/10/23 08:05:36;;;;;;;3.35;2.80;;;11.70;99.90;;;;;;5013608;28;20213;-80
2023/10/23 08:08:02;;;;;;;5.55;3.20;;;11.80;99.90;;;;;;5012918;28;20245;-81
2023/10/23 08:10:27;;;;;;;6.80;3.05;;;11.80;99.90;;;;;;5008762;28;20214;-79
2023/10/23 08:12:53;;;;;;;6.10;3.30;;;11.80;99.90;;;;;;5007608;28;20660;-81
2023/10/23 08:15:19;;;;;;;5.95;3.60;;;11.90;99.90;;;;;;5024995;28;20236;-80
2023/10/23 08:17:44;;;;;;;5.88;3.25;;;12.00;99.90;;;;;;5020721;28;20253;-79
2023/10/23 08:20:10;;;;;;;7.53;3.28;;;11.90;99.90;;;;;;5013931;28;20525;-81
2023/10/23 08:22:36;;;;;;;7.18;3.30;;;11.90;99.90;;;;;;5020899;28;20541;-80
2023/10/23 08:25:02;;;;;;;5.53;3.72;;;12.00;99.90;;;;;;5013433;28;20194;-81
2023/10/23 08:27:28;;;;;;;5.38;3.50;;;12.00;99.90;;;;;;5022789;28;20286;-81
2023/10/23 08:29:54;;;;;;;5.30;3.60;;;12.00;99.90;;;;;;5014457;28;20266;-81
2023/10/23 08:32:19;;;;;;;9.65;4.20;;;12.10;99.90;;;;;;5014556;28;20175;-80
2023/10/23 08:34:45;;;;;;;15.98;4.25;;;12.20;99.90;;;;;;5027056;28;20206;-80
2023/10/23 08:37:11;;;;;;;8.13;4.30;;;12.30;99.90;;;;;;5023265;28;20201;-81
2023/10/23 08:39:37;;;;;;;9.20;4.65;;;12.40;99.90;;;;;;5013482;28;20186;-82
2023/10/23 08:42:03;;;;;;;4.68;4.18;;;12.50;99.90;;;;;;5029528;28;20275;-82
2023/10/23 08:44:29;;;;;;;8.15;4.47;;;12.50;99.90;;;;;;5021357;28;20237;-81
2023/10/23 08:46:55;;;;;;;5.55;4.43;;;12.60;99.90;;;;;;5020538;28;20194;-82
2023/10/23 08:49:21;;;;;;;8.20;4.80;;;12.60;99.90;;;;;;5014833;28;20234;-81
2023/10/23 08:51:53;;;;;;;9.88;6.70;;;12.60;99.90;;;;;;5029482;28;20218;-81
2023/10/23 08:54:20;;;;;;;7.93;6.18;;;12.60;99.90;;;;;;5014250;28;20585;-81
2023/10/23 08:56:56;;;;;;;9.00;6.45;;;12.80;99.90;;;;;;5011538;28;20210;-80
2023/10/23 08:59:22;;;;;;;8.68;7.65;;;12.80;99.90;;;;;;5029520;28;20195;-82
2023/10/23 09:01:48;;;;;;;9.75;7.63;;;12.80;99.90;;;;;;5012874;28;20198;-82
2023/10/23 09:04:16;;;;;;;10.88;7.50;;;12.90;99.90;;;;;;5023549;28;20502;-82
2023/10/23 09:06:43;;;;;;;11.65;8.93;;;13.00;99.90;;;;;;5030432;28;20186;-80
2023/10/23 09:09:09;;;;;;;13.13;9.55;;;13.00;99.90;;;;;;5023735;28;20219;-81
2023/10/23 09:11:45;;;;;;;15.38;10.85;;;13.10;99.90;;;;;;5029281;28;20179;-80
2023/10/23 09:14:23;;;;;;;18.83;11.13;;;13.10;99.90;;;;;;5010991;28;20218;-80
2023/10/23 09:16:49;;;;;;;14.80;11.57;;;13.10;99.90;;;;;;5018453;28;20180;-81
2023/10/23 09:19:32;;;;;;;13.50;11.10;;;13.00;99.90;;;;;;5013501;28;20233;-81
2023/10/23 09:21:58;;;;;;;16.00;12.43;;;13.00;99.90;;;;;;5020671;28;20198;-81
2023/10/23 09:24:24;;;;;;;14.80;13.05;;;13.00;99.90;;;;;;5019054;28;20273;-81
2023/10/23 09:26:51;;;;;;;14.75;12.73;;;12.90;99.90;;;;;;5010283;28;20262;-81
2023/10/23 09:29:24;;;;;;;17.50;13.48;;;13.00;99.90;;;;;;5011893;28;20230;-82
2023/10/23 09:31:51;;;;;;;15.57;12.50;;;13.10;99.90;;;;;;5012158;28;20278;-81
2023/10/23 09:34:21;;;;;;;15.15;12.48;;;13.20;99.90;;;;;;5010839;28;20626;-81
2023/10/23 09:36:52;;;;;;;14.80;13.32;;;13.20;99.90;;;;;;5017719;28;20237;-80
2023/10/23 09:39:19;;;;;;;15.85;13.02;;;13.30;99.90;;;;;;5021940;28;20187;-80
2023/10/23 09:41:48;;;;;;;17.00;13.20;;;13.30;99.90;;;;;;5013882;28;20191;-80
2023/10/23 09:44:15;;;;;;;14.20;12.70;;;13.50;99.90;;;;;;5012339;28;20187;-80
2023/10/23 09:46:45;;;;;;;12.90;11.35;;;13.60;99.90;;;;;;5017305;28;20182;-80
2023/10/23 09:49:10;;;;;;;13.52;10.55;;;13.70;99.90;;;;;;5010605;28;20235;-81
2023/10/23 09:51:41;;;;;;;13.15;10.82;;;13.70;99.90;;;;;;5022012;28;20249;-83
2023/10/23 09:54:15;;;;;;;18.75;10.60;;;13.60;99.90;;;;;;5013281;28;20600;-81
2023/10/23 09:56:48;;;;;;;11.85;10.02;;;13.60;99.90;;;;;;5011731;28;20213;-80
2023/10/23 09:59:26;;;;;;;14.25;10.50;;;13.60;99.90;;;;;;5013190;28;20521;-81
2023/10/23 10:01:59;;;;;;;14.55;12.40;;;13.60;99.90;;;;;;5012494;28;20660;-80
2023/10/23 10:04:29;;;;;;;12.88;11.57;;;13.50;99.90;;;;;;5009268;28;22010;-82
2023/10/23 10:07:05;;;;;;;13.48;11.40;;;13.50;99.90;;;;;;5015222;28;20194;-82
2023/10/23 10:09:31;;;;;;;13.75;11.25;;;13.40;99.90;;;;;;5006375;28;20214;-81
2023/10/23 10:11:58;;;;;;;14.18;11.95;;;13.40;99.90;;;;;;5017018;28;20180;-81
2023/10/23 10:14:25;;;;;;;15.18;11.05;;;13.40;99.90;;;;;;5022455;28;20187;-81
2023/10/23 10:16:55;;;;;;;14.93;11.55;;;13.40;99.90;;;;;;5021517;28;20306;-80
2023/10/23 10:19:21;;;;;;;14.35;12.85;;;13.50;99.90;;;;;;5023490;28;20186;-82
2023/10/23 10:22:06;;;;;;;13.48;11.75;;;13.60;99.90;;;;;;5015589;28;20187;-81
2023/10/23 10:24:36;;;;;;;18.35;11.07;;;13.70;99.90;;;;;;5024907;28;20191;-80
2023/10/23 10:27:03;;;;;;;16.38;12.07;;;13.80;99.90;;;;;;5015245;28;20225;-81
2023/10/23 10:29:30;;;;;;;15.45;11.85;;;13.80;99.90;;;;;;5016857;28;20207;-81
2023/10/23 10:32:06;;;;;;;15.93;11.30;;;13.80;99.90;;;;;;5022990;28;20171;-80
2023/10/23 10:34:56;;;;;;;12.73;10.88;;;13.80;99.90;;;;;;5007413;28;20198;-81
2023/10/23 10:37:25;;;;;;;12.52;8.48;;;13.80;99.90;;;;;;5012768;28;20206;-80
2023/10/23 10:39:52;;;;;;;11.60;6.93;;;13.90;99.90;;;;;;5019173;28;20210;-80
2023/10/23 10:42:22;;;;;;;10.85;6.70;;;14.00;99.90;;;;;;5024775;28;20626;-81
2023/10/23 10:44:54;;;;;;;9.70;7.60;;;14.10;99.90;;;;;;5015454;28;20614;-82
2023/10/23 10:47:22;;;;;;;11.73;7.38;;;14.10;99.90;;;;;;5025199;28;20249;-81
2023/10/23 10:49:50;;;;;;;9.43;6.55;;;14.20;99.90;;;;;;5022437;28;20245;-82
2023/10/23 10:52:37;;;;;;;7.63;6.35;;;14.30;99.90;;;;;;5024625;28;20194;-81
2023/10/23 10:55:08;;;;;;;6.65;5.50;;;14.30;99.90;;;;;;5014607;28;20183;-83
2023/10/23 10:57:37;;;;;;;8.13;5.40;;;14.40;99.90;;;;;;5013795;28;20312;-81
2023/10/23 11:00:03;;;;;;;6.22;4.97;;;14.40;99.90;;;;;;5018423;28;20656;-80
2023/10/23 11:02:29;;;;;;;6.82;4.85;;;14.50;99.90;;;;;;5010382;28;20187;-82
2023/10/23 11:04:55;;;;;;;8.27;5.57;;;14.50;99.90;;;;;;5027683;28;20194;-82
2023/10/23 11:07:25;;;;;;;8.68;5.18;;;14.60;99.90;;;;;;5020694;28;20187;-82
2023/10/23 11:09:52;;;;;;;9.70;5.40;;;14.60;99.90;;;;;;5015227;28;20249;-82
2023/10/23 11:12:18;;;;;;;7.03;5.47;;;14.60;99.90;;;;;;5019586;28;20265;-81
2023/10/23 11:14:47;;;;;;;7.65;5.50;;;14.70;99.90;;;;;;5021953;28;20552;-84
2023/10/23 11:17:15;;;;;;;5.68;4.88;;;14.70;99.90;;;;;;5022742;28;20564;-83
2023/10/23 11:19:44;;;;;;;5.82;4.63;;;14.80;99.90;;;;;;5015719;28;20179;-82
2023/10/23 11:22:11;;;;;;;7.72;4.93;;;14.80;99.90;;;;;;5013388;28;20241;-81
2023/10/23 11:24:38;;;;;;;5.75;5.00;;;14.90;99.90;;;;;;5014463;28;20214;-81
2023/10/23 11:27:07;;;;;;;5.97;5.28;;;14.80;99.90;;;;;;5014621;28;20187;-82
2023/10/23 11:29:51;;;;;;;5.30;4.65;;;14.70;99.90;;;;;;5017168;28;20218;-83
2023/10/23 11:32:17;;;;;;;5.60;4.35;;;14.60;99.90;;;;;;5026410;28;20614;-83
2023/10/23 11:34:44;;;;;;;5.80;5.03;;;14.60;99.90;;;;;;5026251;28;20183;-87
2023/10/23 11:37:11;;;;;;;5.80;5.20;;;14.60;99.90;;;;;;5015590;28;20183;-81
2023/10/23 11:39:39;;;;;;;7.32;4.53;;;14.60;99.90;;;;;;5019112;28;20617;-84
2023/10/23 11:42:05;;;;;;;6.55;4.82;;;14.60;99.90;;;;;;5018093;28;20183;-81
2023/10/23 11:44:36;;;;;;;8.10;5.05;;;14.60;99.90;;;;;;5023768;28;20222;-83
2023/10/23 11:47:07;;;;;;;5.65;4.72;;;14.50;99.90;;;;;;5021542;28;20290;-82
2023/10/23 11:49:33;;;;;;;6.82;5.07;;;14.40;99.90;;;;;;5010908;28;20570;-81
2023/10/23 11:52:00;;;;;;;7.45;5.03;;;14.30;99.90;;;;;;5020330;28;20190;-81
2023/10/23 11:54:27;;;;;;;7.93;5.07;;;14.30;99.90;;;;;;5025595;28;20191;-82
2023/10/23 11:56:56;;;;;;;7.10;4.97;;;14.20;99.90;;;;;;5016160;28;20218;-84
2023/10/23 11:59:22;;;;;;;10.73;4.72;;;14.40;99.90;;;;;;5023806;28;20244;-81
2023/10/23 12:01:49;;;;;;;5.28;3.80;;;14.60;99.90;;;;;;5015833;28;20186;-81
2023/10/23 12:04:15;;;;;;;6.93;4.15;;;14.80;99.90;;;;;;5016373;28;20206;-83
2023/10/23 12:06:42;;;;;;;5.57;4.00;;;15.10;99.90;;;;;;5023188;28;20195;-81
2023/10/23 12:09:11;;;;;;;6.78;3.40;;;15.20;99.90;;;;;;5012924;28;20672;-82
2023/10/23 12:11:37;;;;;;;4.97;3.40;;;15.30;99.90;;;;;;5017993;28;20197;-81
2023/10/23 12:14:03;;;;;;;4.88;3.22;;;15.30;99.90;;;;;;5017335;28;20191;-82
2023/10/23 12:16:33;;;;;;;6.13;3.67;;;15.30;99.90;;;;;;5026522;28;20357;-81
2023/10/23 12:18:59;;;;;;;5.30;3.38;;;15.30;99.90;;;;;;5010921;28;20189;-83
2023/10/23 12:21:26;;;;;;;3.88;3.40;;;15.30;99.90;;;;;;5013253;28;20242;-82
2023/10/23 12:23:52;;;;;;;5.88;3.65;;;15.20;99.90;;;;;;5028082;28;20198;-81
2023/10/23 12:26:21;;;;;;;6.90;3.60;;;15.20;99.90;;;;;;5014094;28;20190;-85
2023/10/23 12:28:48;;;;;;;4.63;2.88;;;15.10;99.90;;;;;;5012077;28;20226;-82
2023/10/23 12:31:13;;;;;;;5.78;3.13;;;15.10;99.90;;;;;;5014642;28;20182;-81
2023/10/23 12:33:39;;;;;;;4.75;2.60;;;15.20;99.90;;;;;;5025485;28;20187;-85
2023/10/23 12:36:05;;;;;;;6.90;2.47;;;15.30;99.90;;;;;;5013325;28;20187;-82
2023/10/23 12:38:31;;;;;;;4.55;2.67;;;15.40;99.90;;;;;;5017299;28;20301;-83
2023/10/23 12:41:00;;;;;;;3.95;2.88;;;15.30;99.90;;;;;;5009633;28;20183;-83
2023/10/23 12:43:26;;;;;;;2.80;2.35;;;15.20;99.90;;;;;;5017662;28;20212;-82
2023/10/23 12:45:52;;;;;;;6.15;2.97;;;15.30;99.90;;;;;;5016871;28;20183;-84
2023/10/23 12:48:18;;;;;;;4.03;2.72;;;15.30;99.90;;;;;;5015807;28;20233;-85